Wattsville, Alabama
Current Conditions -  °F | °C
As of 1:15 AM on Saturday 20 Dec 2014 (Local Time) from KASN Reporting Station
Moderate Rain Moderate Rain  
Wind Chill: 39°   Ceiling: 5000
Heat Index: 42°   Visibility: 7mi
Dew Point: 40°   Wind: 6mph
Humidity: 91%   Direction: 330°NNW
Pressure: 30.15"   Gusts: NA
Location:  33.68°N, 86.28°W
Report Text: KASN 200715Z AUTO 33005KT 7SM RA SCT008 BKN050 OVC065 06/05 A3015 RMK AO2 P0002 T00580045
Loading
Personal Weather Stations






























Interactive Weather Map New forecast layout! Learn more

10-Day Weather Forecast

Advertisements
Track Severe Weather on mobile